Time;durP1;ratioP1;P1;durP2;ratioP2;P2;SDS_P1;SDS_P2;PMS_P1;PMS_P2;Temp;Humidity;BMP_temperature;BMP_pressure;BME280_temperature;BME280_humidity;BME280_pressure;Samples;Min_cycle;Max_cycle;Signal;HPM_P1;HPM_P2
2023/07/06 00:02:23;;;;;;;9.37;5.40;;;15.50;99.90;;;;;;5033214;28;20200;-72
2023/07/06 00:05:11;;;;;;;10.03;5.07;;;15.40;99.90;;;;;;5033588;28;20207;-72
2023/07/06 00:08:00;;;;;;;12.97;5.87;;;15.30;99.90;;;;;;5033790;28;20314;-73
2023/07/06 00:10:49;;;;;;;10.30;5.40;;;15.30;99.90;;;;;;5033666;28;20192;-72
2023/07/06 00:13:37;;;;;;;13.23;5.10;;;15.30;99.90;;;;;;5033511;28;20256;-72
2023/07/06 00:16:26;;;;;;;11.07;5.07;;;15.30;99.90;;;;;;5033745;28;20227;-73
2023/07/06 00:19:17;;;;;;;15.60;5.83;;;15.30;99.90;;;;;;5033313;28;20196;-73
2023/07/06 00:22:05;;;;;;;9.03;5.07;;;15.30;99.90;;;;;;5033386;28;20216;-73
2023/07/06 00:24:52;;;;;;;12.97;5.73;;;15.30;99.90;;;;;;5033608;28;20207;-72
2023/07/06 00:27:40;;;;;;;9.63;5.00;;;15.30;99.90;;;;;;5033771;28;20200;-73
2023/07/06 00:30:41;;;;;;;13.33;5.77;;;15.20;99.90;;;;;;5033464;28;20230;-72
2023/07/06 00:33:29;;;;;;;14.40;5.23;;;15.10;99.90;;;;;;5033104;28;20211;-73
2023/07/06 00:36:17;;;;;;;11.50;5.17;;;15.00;99.90;;;;;;5033467;28;20661;-73
2023/07/06 00:39:04;;;;;;;11.03;5.40;;;15.00;99.90;;;;;;5033099;28;20217;-72
2023/07/06 00:41:52;;;;;;;9.40;5.53;;;15.00;99.90;;;;;;5033150;28;20668;-73
2023/07/06 00:44:51;;;;;;;10.13;5.20;;;15.00;99.90;;;;;;5033391;28;20198;-73
2023/07/06 00:47:43;;;;;;;12.53;5.27;;;14.90;99.90;;;;;;5063152;28;20566;-72
2023/07/06 00:50:32;;;;;;;16.47;5.73;;;14.90;99.90;;;;;;5072095;28;20687;-72
2023/07/06 00:53:20;;;;;;;8.20;5.30;;;14.90;99.90;;;;;;5072538;28;20197;-73
2023/07/06 00:56:07;;;;;;;9.03;4.67;;;14.70;99.90;;;;;;5071892;28;20200;-72
2023/07/06 00:58:55;;;;;;;33.47;5.40;;;14.70;99.90;;;;;;5071639;28;20279;-73
2023/07/06 01:01:44;;;;;;;8.30;4.60;;;14.70;99.90;;;;;;5071985;28;20234;-73
2023/07/06 01:04:31;;;;;;;7.73;4.50;;;14.70;99.90;;;;;;5071732;28;20200;-73
2023/07/06 01:07:22;;;;;;;7.03;4.63;;;14.60;99.90;;;;;;5071619;28;20196;-73
2023/07/06 01:10:10;;;;;;;9.40;5.17;;;14.60;99.90;;;;;;5072407;28;20228;-72
2023/07/06 01:12:57;;;;;;;12.50;5.73;;;14.70;99.90;;;;;;5073172;28;20198;-73
2023/07/06 01:15:47;;;;;;;10.00;5.57;;;14.80;99.90;;;;;;5076446;28;20204;-73
2023/07/06 01:18:38;;;;;;;12.23;6.27;;;15.00;99.90;;;;;;5075839;28;20199;-73
2023/07/06 01:21:28;;;;;;;10.90;5.87;;;15.20;99.90;;;;;;5075501;28;20393;-72
2023/07/06 01:24:39;;;;;;;12.53;6.20;;;15.30;99.90;;;;;;5075778;28;20211;-73
2023/07/06 01:27:43;;;;;;;14.57;6.50;;;15.40;99.90;;;;;;5075821;28;20205;-72
2023/07/06 01:30:53;;;;;;;15.23;6.33;;;15.50;99.90;;;;;;5075443;28;20208;-73
2023/07/06 01:33:47;;;;;;;14.17;7.30;;;15.50;99.90;;;;;;5076066;28;20618;-72
2023/07/06 01:36:38;;;;;;;13.90;7.30;;;15.50;99.90;;;;;;5075357;28;20338;-73
2023/07/06 01:39:27;;;;;;;17.10;7.63;;;15.60;99.90;;;;;;5075467;28;20213;-72
2023/07/06 01:42:27;;;;;;;15.37;7.50;;;15.70;99.90;;;;;;5075167;28;20246;-73
2023/07/06 01:45:16;;;;;;;14.37;7.87;;;15.70;99.90;;;;;;5075747;28;20563;-73
2023/07/06 01:48:05;;;;;;;14.63;7.73;;;15.70;99.90;;;;;;5056236;28;20205;-73
2023/07/06 01:51:02;;;;;;;13.97;8.00;;;15.80;99.90;;;;;;5055424;28;20205;-73
2023/07/06 01:53:52;;;;;;;14.10;8.07;;;15.80;99.90;;;;;;5055532;28;20209;-73
2023/07/06 01:56:43;;;;;;;24.57;10.37;;;15.80;99.90;;;;;;5055624;28;20631;-73
2023/07/06 01:59:32;;;;;;;22.70;9.07;;;15.80;99.90;;;;;;5055287;28;20696;-73
2023/07/06 02:02:19;;;;;;;16.87;9.20;;;15.80;99.90;;;;;;5055512;28;20199;-73
2023/07/06 02:05:08;;;;;;;17.63;9.40;;;15.80;99.90;;;;;;5055319;28;20204;-73
2023/07/06 02:07:56;;;;;;;18.10;9.50;;;15.80;99.90;;;;;;5055277;28;20689;-73
2023/07/06 02:10:44;;;;;;;20.47;10.70;;;15.70;99.90;;;;;;5055210;28;20214;-72
2023/07/06 02:13:32;;;;;;;21.00;9.70;;;15.80;99.90;;;;;;5054708;28;20669;-73
2023/07/06 02:16:19;;;;;;;24.13;10.97;;;15.70;99.90;;;;;;5055212;28;20194;-73
2023/07/06 02:19:07;;;;;;;23.03;11.73;;;15.70;99.90;;;;;;5055282;28;20651;-72
2023/07/06 02:21:54;;;;;;;20.60;10.83;;;15.60;99.90;;;;;;5055251;28;20212;-73
2023/07/06 02:24:43;;;;;;;20.67;11.20;;;15.60;99.90;;;;;;5053607;28;20619;-74
2023/07/06 02:27:32;;;;;;;17.10;11.07;;;15.60;99.90;;;;;;5054991;28;20646;-74
2023/07/06 02:30:19;;;;;;;20.33;11.57;;;15.50;99.90;;;;;;5054842;28;20216;-74
2023/07/06 02:33:06;;;;;;;22.20;12.60;;;15.50;99.90;;;;;;5054771;28;20206;-74
2023/07/06 02:35:53;;;;;;;24.23;11.90;;;15.50;99.90;;;;;;5054639;28;20228;-74
2023/07/06 02:38:42;;;;;;;25.97;11.33;;;15.50;99.90;;;;;;5054544;28;20225;-74
2023/07/06 02:41:30;;;;;;;18.67;9.73;;;15.40;99.90;;;;;;5053899;28;20201;-74
2023/07/06 02:44:19;;;;;;;16.33;9.80;;;15.40;99.90;;;;;;5054560;28;20197;-74
2023/07/06 02:47:08;;;;;;;19.87;10.27;;;15.50;99.90;;;;;;5065273;28;20198;-74
2023/07/06 02:49:55;;;;;;;16.67;9.93;;;15.40;99.90;;;;;;5072432;28;20226;-74
2023/07/06 02:52:44;;;;;;;20.23;9.97;;;15.40;99.90;;;;;;5074439;28;20248;-73
2023/07/06 02:55:32;;;;;;;22.60;10.30;;;15.30;99.90;;;;;;5073730;28;20287;-74
2023/07/06 02:58:20;;;;;;;19.13;10.20;;;15.30;99.90;;;;;;5072809;28;20671;-74
2023/07/06 03:01:08;;;;;;;22.27;11.40;;;15.30;99.90;;;;;;5074211;28;20196;-73
2023/07/06 03:03:55;;;;;;;21.97;10.87;;;15.30;99.90;;;;;;5074211;28;20330;-74
2023/07/06 03:06:42;;;;;;;24.13;11.13;;;15.30;99.90;;;;;;5074431;28;20204;-74
2023/07/06 03:09:30;;;;;;;20.97;11.00;;;15.20;99.90;;;;;;5073906;28;20219;-74
2023/07/06 03:12:19;;;;;;;21.17;11.03;;;15.20;99.90;;;;;;5074028;28;20200;-74
2023/07/06 03:15:11;;;;;;;22.03;11.37;;;15.20;99.90;;;;;;5074263;28;20216;-74
2023/07/06 03:17:58;;;;;;;21.10;11.00;;;15.20;99.90;;;;;;5073573;28;20566;-73
2023/07/06 03:20:48;;;;;;;19.43;10.00;;;15.20;99.90;;;;;;5074098;28;20195;-74
2023/07/06 03:23:35;;;;;;;19.70;10.33;;;15.20;99.90;;;;;;5073260;28;20204;-74
2023/07/06 03:26:23;;;;;;;16.90;10.17;;;15.10;99.90;;;;;;5074008;28;20200;-74
2023/07/06 03:29:12;;;;;;;20.83;10.70;;;15.10;99.90;;;;;;5074083;28;20203;-74
2023/07/06 03:32:00;;;;;;;17.77;10.30;;;15.10;99.90;;;;;;5072331;28;20232;-73
2023/07/06 03:34:47;;;;;;;19.17;10.10;;;15.10;99.90;;;;;;5073810;28;20208;-74
2023/07/06 03:37:35;;;;;;;16.90;9.80;;;15.20;99.90;;;;;;5072056;28;20202;-74
2023/07/06 03:40:22;;;;;;;23.30;9.90;;;15.20;99.90;;;;;;5072760;28;20197;-74
2023/07/06 03:43:09;;;;;;;15.87;9.67;;;15.20;99.90;;;;;;5072796;28;20257;-73
2023/07/06 03:45:56;;;;;;;16.73;10.10;;;15.20;99.90;;;;;;5071785;28;20208;-74
2023/07/06 03:48:46;;;;;;;17.23;9.97;;;15.20;99.90;;;;;;5053908;28;20232;-74
2023/07/06 03:51:34;;;;;;;20.10;9.27;;;15.20;99.90;;;;;;5053205;28;20623;-74
2023/07/06 03:54:21;;;;;;;18.83;10.50;;;15.20;99.90;;;;;;5053528;28;20193;-73
2023/07/06 03:57:09;;;;;;;19.53;9.73;;;15.20;99.90;;;;;;5053239;28;20201;-74
2023/07/06 03:59:56;;;;;;;18.00;10.53;;;15.10;99.90;;;;;;5053192;28;20244;-74
2023/07/06 04:02:43;;;;;;;20.93;9.90;;;15.10;99.90;;;;;;5053328;28;20209;-74
2023/07/06 04:05:34;;;;;;;18.00;9.67;;;15.20;99.90;;;;;;5052968;28;20224;-74
2023/07/06 04:08:22;;;;;;;16.17;8.77;;;15.10;99.90;;;;;;5053026;28;20200;-74
2023/07/06 04:11:10;;;;;;;17.60;8.37;;;15.10;99.90;;;;;;5052823;28;20217;-73
2023/07/06 04:13:57;;;;;;;14.83;8.23;;;15.10;99.90;;;;;;5053101;28;20232;-74
2023/07/06 04:16:46;;;;;;;14.43;7.73;;;15.20;99.90;;;;;;5052805;28;20224;-74
2023/07/06 04:19:34;;;;;;;11.37;6.83;;;15.20;99.90;;;;;;5052737;28;20660;-74
2023/07/06 04:22:22;;;;;;;16.90;7.03;;;15.30;99.90;;;;;;5053042;28;20212;-74
2023/07/06 04:25:09;;;;;;;9.83;6.67;;;15.30;99.90;;;;;;5052637;28;20201;-73
2023/07/06 04:27:57;;;;;;;13.73;6.33;;;15.30;99.90;;;;;;5052912;28;20201;-74
2023/07/06 04:30:45;;;;;;;10.67;6.03;;;15.40;99.90;;;;;;5052855;28;20213;-73
2023/07/06 04:33:32;;;;;;;14.40;6.03;;;15.50;99.90;;;;;;5052735;28;20220;-74
2023/07/06 04:36:19;;;;;;;19.63;6.00;;;15.50;99.90;;;;;;5052801;28;20193;-74
2023/07/06 04:39:08;;;;;;;14.47;6.23;;;15.60;99.90;;;;;;5052731;28;20228;-74
2023/07/06 04:41:55;;;;;;;19.57;6.87;;;15.70;99.90;;;;;;5052471;28;20273;-73
2023/07/06 04:44:44;;;;;;;14.73;6.03;;;15.70;99.90;;;;;;5052476;28;20238;-73
2023/07/06 04:47:33;;;;;;;21.13;5.70;;;15.80;99.90;;;;;;5066003;28;20193;-73
2023/07/06 04:50:22;;;;;;;14.20;5.57;;;15.80;99.90;;;;;;5072190;28;20281;-74
2023/07/06 04:53:09;;;;;;;14.27;5.53;;;15.70;99.90;;;;;;5071760;28;20691;-74
2023/07/06 04:55:59;;;;;;;12.23;5.90;;;15.90;99.90;;;;;;5071825;28;20570;-73
2023/07/06 04:58:46;;;;;;;13.13;5.67;;;16.00;99.90;;;;;;5071774;28;20691;-74
2023/07/06 05:01:34;;;;;;;16.30;6.03;;;16.20;99.90;;;;;;5071988;28;20201;-73
2023/07/06 05:04:21;;;;;;;13.97;5.27;;;16.20;99.90;;;;;;5072314;28;20202;-73
2023/07/06 05:07:12;;;;;;;13.23;5.33;;;16.20;99.90;;;;;;5072206;28;20250;-73
2023/07/06 05:09:59;;;;;;;13.57;5.67;;;16.10;99.90;;;;;;5071898;28;20223;-73
2023/07/06 05:12:47;;;;;;;17.97;5.20;;;15.80;99.90;;;;;;5071735;28;20231;-71
2023/07/06 05:15:36;;;;;;;11.50;5.30;;;15.90;99.90;;;;;;5071592;28;20199;-73
2023/07/06 05:18:23;;;;;;;10.33;5.20;;;16.00;99.90;;;;;;5071721;28;20205;-72
2023/07/06 05:21:10;;;;;;;11.70;4.87;;;16.20;99.90;;;;;;5072329;28;20213;-73
2023/07/06 05:23:58;;;;;;;11.47;5.20;;;16.40;99.90;;;;;;5071605;28;20207;-73
2023/07/06 05:26:45;;;;;;;10.47;4.80;;;16.60;99.90;;;;;;5071785;28;20212;-72
2023/07/06 05:29:33;;;;;;;11.33;5.27;;;16.80;99.90;;;;;;5071572;28;20211;-73
2023/07/06 05:32:21;;;;;;;11.00;4.40;;;17.00;99.90;;;;;;5072296;28;20220;-73
2023/07/06 05:35:09;;;;;;;9.47;4.77;;;17.20;99.90;;;;;;5071549;28;20300;-72
2023/07/06 05:37:56;;;;;;;10.73;4.77;;;17.40;99.90;;;;;;5071266;28;20223;-72
2023/07/06 05:40:43;;;;;;;9.40;4.83;;;17.50;99.90;;;;;;5071401;28;20262;-72
2023/07/06 05:43:31;;;;;;;9.43;4.90;;;17.60;99.90;;;;;;5072111;28;20207;-73
2023/07/06 05:46:19;;;;;;;11.97;4.40;;;17.70;99.90;;;;;;5067293;28;20213;-73
2023/07/06 05:49:06;;;;;;;10.60;4.53;;;17.60;99.90;;;;;;5051973;28;20226;-72
2023/07/06 05:51:54;;;;;;;8.70;4.50;;;17.60;99.90;;;;;;5051744;28;20210;-72
2023/07/06 05:54:41;;;;;;;11.63;4.53;;;17.60;99.90;;;;;;5051241;28;20573;-72
2023/07/06 05:57:28;;;;;;;12.13;4.83;;;17.40;99.90;;;;;;5051915;28;20207;-72
2023/07/06 06:00:16;;;;;;;12.43;4.37;;;17.40;99.90;;;;;;5053703;28;20239;-72
2023/07/06 06:03:05;;;;;;;10.07;4.37;;;17.40;99.90;;;;;;5055326;28;20201;-72
2023/07/06 06:05:53;;;;;;;11.80;4.63;;;17.50;99.90;;;;;;5055347;28;20209;-72
2023/07/06 06:08:40;;;;;;;10.23;4.00;;;17.70;99.90;;;;;;5055307;28;20571;-72
2023/07/06 06:11:27;;;;;;;10.63;4.30;;;17.90;99.90;;;;;;5055359;28;20225;-72
2023/07/06 06:14:15;;;;;;;7.50;4.03;;;18.10;99.90;;;;;;5055402;28;20569;-72
2023/07/06 06:17:03;;;;;;;7.40;4.20;;;18.20;99.90;;;;;;5055183;28;20213;-72
2023/07/06 06:19:52;;;;;;;6.60;3.80;;;18.00;99.90;;;;;;5055045;28;20212;-72
2023/07/06 06:22:40;;;;;;;8.07;4.00;;;17.90;99.90;;;;;;5055066;28;20195;-72
2023/07/06 06:25:27;;;;;;;9.40;3.73;;;17.90;99.90;;;;;;5054884;28;20206;-72
2023/07/06 06:28:16;;;;;;;8.23;3.63;;;18.20;99.90;;;;;;5054893;28;20284;-72
2023/07/06 06:31:03;;;;;;;9.10;3.80;;;18.10;99.90;;;;;;5054763;28;20224;-72
2023/07/06 06:33:50;;;;;;;12.57;3.77;;;18.10;99.90;;;;;;5054817;28;20571;-72
2023/07/06 06:36:39;;;;;;;12.60;3.67;;;18.20;99.90;;;;;;5055291;28;20207;-71
2023/07/06 06:39:26;;;;;;;10.13;3.60;;;18.30;99.90;;;;;;5054779;28;20574;-72
2023/07/06 06:42:14;;;;;;;6.20;3.97;;;18.40;99.90;;;;;;5054693;28;20200;-72
2023/07/06 06:45:01;;;;;;;10.47;3.70;;;18.40;99.90;;;;;;5054629;28;20200;-72
2023/07/06 06:47:48;;;;;;;8.97;3.93;;;18.50;99.90;;;;;;5070298;28;20214;-72
2023/07/06 06:50:35;;;;;;;12.83;3.47;;;18.40;99.90;;;;;;5073878;28;20634;-72
2023/07/06 06:53:24;;;;;;;8.93;3.90;;;18.40;99.90;;;;;;5074067;28;20210;-72
2023/07/06 06:56:11;;;;;;;8.17;3.20;;;18.00;99.90;;;;;;5073982;28;20201;-71
2023/07/06 06:58:58;;;;;;;9.03;3.50;;;18.00;99.90;;;;;;5073966;28;20193;-71
2023/07/06 07:01:46;;;;;;;8.47;3.17;;;18.20;99.90;;;;;;5073662;28;20230;-71
2023/07/06 07:04:33;;;;;;;8.10;3.40;;;18.20;99.90;;;;;;5074474;28;20202;-72
2023/07/06 07:07:20;;;;;;;7.63;3.03;;;18.30;99.90;;;;;;5073670;28;20196;-71
2023/07/06 07:10:09;;;;;;;10.63;3.00;;;18.10;99.90;;;;;;5073489;28;20211;-71
2023/07/06 07:12:57;;;;;;;7.83;3.20;;;18.10;99.90;;;;;;5074284;28;20201;-71
2023/07/06 07:15:45;;;;;;;6.47;3.03;;;18.30;99.90;;;;;;5073487;28;20211;-71
2023/07/06 07:18:32;;;;;;;5.90;3.00;;;18.50;99.90;;;;;;5073951;28;20195;-71
2023/07/06 07:21:20;;;;;;;5.90;2.97;;;18.50;99.90;;;;;;5073757;28;20210;-71
2023/07/06 07:24:08;;;;;;;7.70;3.10;;;18.20;99.90;;;;;;5073443;28;20573;-71
2023/07/06 07:26:57;;;;;;;7.93;3.40;;;18.40;99.90;;;;;;5073189;28;20197;-71
2023/07/06 07:29:46;;;;;;;8.33;3.40;;;18.40;99.90;;;;;;5073619;28;20655;-71
2023/07/06 07:32:33;;;;;;;6.87;3.03;;;18.60;99.90;;;;;;5073105;28;20650;-71
2023/07/06 07:35:21;;;;;;;6.10;3.37;;;18.40;99.90;;;;;;5072857;28;20235;-71
2023/07/06 07:38:08;;;;;;;10.33;3.40;;;18.40;99.90;;;;;;5073057;28;20299;-71
2023/07/06 07:40:56;;;;;;;7.43;3.40;;;18.30;99.90;;;;;;5072994;28;20199;-71
2023/07/06 07:43:46;;;;;;;4.47;3.00;;;18.30;99.90;;;;;;5072873;28;20214;-71
2023/07/06 07:46:33;;;;;;;8.47;3.40;;;18.60;99.90;;;;;;5066584;28;20228;-71
2023/07/06 07:49:20;;;;;;;12.00;3.37;;;18.60;99.90;;;;;;5053318;28;20246;-71
2023/07/06 07:52:09;;;;;;;8.27;3.30;;;18.80;99.90;;;;;;5053255;28;20213;-71
2023/07/06 07:54:56;;;;;;;7.37;3.30;;;19.10;99.90;;;;;;5053460;28;20229;-71
2023/07/06 07:57:44;;;;;;;13.10;3.30;;;19.20;99.90;;;;;;5053457;28;20204;-72
2023/07/06 08:00:34;;;;;;;10.37;3.17;;;19.20;99.90;;;;;;5053193;28;20279;-72
2023/07/06 08:03:22;;;;;;;6.17;2.90;;;18.90;99.90;;;;;;5053019;28;20309;-71
2023/07/06 08:06:10;;;;;;;7.73;3.07;;;18.80;99.90;;;;;;5053059;28;20686;-71
2023/07/06 08:08:57;;;;;;;8.60;3.37;;;18.80;99.90;;;;;;5051989;28;20206;-71
2023/07/06 08:11:46;;;;;;;9.93;3.60;;;19.00;99.90;;;;;;5053204;28;20213;-71
2023/07/06 08:14:35;;;;;;;7.53;3.40;;;19.20;99.90;;;;;;5053127;28;20668;-71
2023/07/06 08:17:26;;;;;;;13.93;3.23;;;19.40;99.90;;;;;;5052951;28;20778;-72
2023/07/06 08:20:14;;;;;;;6.37;3.00;;;19.60;99.90;;;;;;5052840;28;20204;-71
2023/07/06 08:23:01;;;;;;;5.90;2.83;;;19.60;99.90;;;;;;5052044;28;20200;-72
2023/07/06 08:25:51;;;;;;;6.63;3.17;;;19.70;99.90;;;;;;5052754;28;20212;-71
2023/07/06 08:28:39;;;;;;;7.43;2.80;;;19.60;99.90;;;;;;5052944;28;20197;-71
2023/07/06 08:31:26;;;;;;;10.80;3.50;;;19.60;99.90;;;;;;5052509;28;20224;-71
2023/07/06 08:34:16;;;;;;;12.53;3.40;;;19.60;99.90;;;;;;5052919;28;20204;-71
2023/07/06 08:37:04;;;;;;;7.00;3.33;;;19.90;99.90;;;;;;5052970;28;20553;-72
2023/07/06 08:39:51;;;;;;;9.93;3.40;;;20.20;99.90;;;;;;5052800;28;20225;-72
2023/07/06 08:42:39;;;;;;;6.53;3.10;;;20.40;99.90;;;;;;5052482;28;20193;-71
2023/07/06 08:45:31;;;;;;;7.50;3.17;;;20.10;99.90;;;;;;5053095;28;20555;-71
2023/07/06 08:48:19;;;;;;;5.73;3.10;;;20.40;99.90;;;;;;5033298;28;20198;-71
2023/07/06 08:51:15;;;;;;;7.50;3.30;;;20.50;99.90;;;;;;5032167;28;20213;-71
2023/07/06 08:54:07;;;;;;;8.67;3.00;;;20.70;99.90;;;;;;5032187;28;20201;-71
2023/07/06 08:56:54;;;;;;;8.40;3.03;;;20.70;99.90;;;;;;5031931;28;20280;-71
2023/07/06 08:59:42;;;;;;;7.13;3.13;;;20.90;99.90;;;;;;5031805;28;20209;-72
2023/07/06 09:02:31;;;;;;;12.67;3.03;;;20.90;99.90;;;;;;5031900;28;20236;-72
2023/07/06 09:05:20;;;;;;;6.60;3.00;;;21.00;99.90;;;;;;5032567;28;20202;-71
2023/07/06 09:08:10;;;;;;;7.80;3.37;;;21.20;99.90;;;;;;5031913;28;20247;-71
2023/07/06 09:10:57;;;;;;;7.80;3.37;;;20.90;99.90;;;;;;5031783;28;20202;-72
2023/07/06 09:13:46;;;;;;;9.33;3.13;;;21.00;99.90;;;;;;5031709;28;20201;-72
2023/07/06 09:16:35;;;;;;;5.13;3.10;;;21.20;99.90;;;;;;5031765;28;20201;-71
2023/07/06 09:19:22;;;;;;;7.53;2.97;;;21.00;99.90;;;;;;5031535;28;20284;-71
2023/07/06 09:22:10;;;;;;;9.47;2.80;;;21.40;99.90;;;;;;5031728;28;20194;-72
2023/07/06 09:25:05;;;;;;;7.37;2.80;;;21.60;99.90;;;;;;5031890;28;20202;-71
2023/07/06 09:27:52;;;;;;;7.00;3.03;;;21.90;99.90;;;;;;5031583;28;20208;-71
2023/07/06 09:30:39;;;;;;;6.40;2.80;;;21.70;99.90;;;;;;5031872;28;20581;-72
2023/07/06 09:33:27;;;;;;;9.93;3.20;;;22.10;99.90;;;;;;5031925;28;20186;-71
2023/07/06 09:36:16;;;;;;;7.67;2.80;;;22.50;99.90;;;;;;5036024;28;20578;-72
2023/07/06 09:39:04;;;;;;;7.87;2.57;;;22.40;99.90;;;;;;5035689;28;20228;-71
2023/07/06 09:41:53;;;;;;;7.67;3.00;;;22.40;99.90;;;;;;5035815;28;20679;-71
2023/07/06 09:44:41;;;;;;;6.60;3.03;;;22.20;99.90;;;;;;5035384;28;20202;-72
2023/07/06 09:47:29;;;;;;;6.00;2.83;;;22.30;99.90;;;;;;5062548;28;20736;-71
2023/07/06 09:50:19;;;;;;;7.03;2.93;;;22.40;99.90;;;;;;5074895;28;20232;-72
2023/07/06 09:53:07;;;;;;;4.67;2.10;;;22.60;97.00;;;;;;5075484;28;20216;-71
2023/07/06 09:55:54;;;;;;;4.50;2.13;;;22.40;94.60;;;;;;5075087;28;20219;-71
2023/07/06 09:58:45;;;;;;;6.83;2.20;;;22.40;92.30;;;;;;5074902;28;20197;-72
2023/07/06 10:01:37;;;;;;;5.77;2.67;;;22.40;90.70;;;;;;5074703;28;20330;-71
2023/07/06 10:04:40;;;;;;;6.37;2.47;;;22.50;94.50;;;;;;5075681;28;20201;-71
2023/07/06 10:07:39;;;;;;;8.13;2.60;;;22.50;93.90;;;;;;5075028;28;20553;-71
2023/07/06 10:10:33;;;;;;;6.70;2.50;;;22.70;93.00;;;;;;5074978;28;20574;-71
2023/07/06 10:13:37;;;;;;;5.80;2.57;;;22.70;96.20;;;;;;5074747;28;20270;-71
2023/07/06 10:16:28;;;;;;;4.97;2.30;;;22.70;96.10;;;;;;5074732;28;20241;-71
2023/07/06 10:19:20;;;;;;;5.03;2.47;;;22.80;95.10;;;;;;5074714;28;20201;-71
2023/07/06 10:22:12;;;;;;;6.17;2.40;;;22.80;93.80;;;;;;5074816;28;20200;-71
2023/07/06 10:25:02;;;;;;;4.90;2.60;;;22.70;90.90;;;;;;5074742;28;20236;-71
2023/07/06 10:27:51;;;;;;;7.53;2.70;;;22.70;94.90;;;;;;5074675;28;20215;-72
2023/07/06 10:30:45;;;;;;;7.60;2.63;;;22.50;90.50;;;;;;5074964;28;20339;-72
2023/07/06 10:33:37;;;;;;;7.53;2.90;;;22.50;99.50;;;;;;5074224;28;20585;-71
2023/07/06 10:36:25;;;;;;;6.57;2.70;;;22.60;90.40;;;;;;5074282;28;20228;-72
2023/07/06 10:39:14;;;;;;;6.27;2.93;;;22.00;92.30;;;;;;5074066;28;20250;-71
2023/07/06 10:42:02;;;;;;;6.77;2.90;;;21.90;88.10;;;;;;5074101;28;20276;-71
2023/07/06 10:44:51;;;;;;;7.33;2.93;;;21.80;95.80;;;;;;5074848;28;20667;-71
2023/07/06 10:47:39;;;;;;;9.10;2.90;;;21.70;92.20;;;;;;5058853;28;20216;-71
2023/07/06 10:50:30;;;;;;;3.93;2.60;;;21.60;99.90;;;;;;5054528;28;20718;-72
2023/07/06 10:53:25;;;;;;;9.17;3.03;;;21.10;99.60;;;;;;5054525;28;20210;-71
2023/07/06 10:56:17;;;;;;;9.77;3.03;;;20.80;99.90;;;;;;5054385;28;20209;-71
2023/07/06 10:59:04;;;;;;;3.93;2.50;;;20.70;99.90;;;;;;5054351;28;20205;-71
2023/07/06 11:02:02;;;;;;;6.93;3.00;;;20.70;99.90;;;;;;5054285;28;20197;-71
2023/07/06 11:05:08;;;;;;;7.80;2.90;;;20.70;99.90;;;;;;5054261;28;20579;-71
2023/07/06 11:07:58;;;;;;;5.00;2.80;;;20.60;99.90;;;;;;5054675;28;20204;-71
2023/07/06 11:10:47;;;;;;;10.73;2.80;;;20.40;99.90;;;;;;5054449;28;20212;-71
2023/07/06 11:13:37;;;;;;;4.67;2.67;;;20.40;99.90;;;;;;5053498;28;20213;-71
2023/07/06 11:16:27;;;;;;;6.90;2.47;;;20.60;99.90;;;;;;5053667;28;20661;-71
2023/07/06 11:19:18;;;;;;;4.53;2.70;;;20.50;99.90;;;;;;5054466;28;20205;-71
2023/07/06 11:22:06;;;;;;;9.47;2.70;;;20.60;99.90;;;;;;5054059;28;20198;-71
2023/07/06 11:24:57;;;;;;;6.47;2.97;;;20.50;99.90;;;;;;5053005;28;20205;-71
2023/07/06 11:27:45;;;;;;;7.10;3.00;;;20.40;99.90;;;;;;5053971;28;20201;-71
2023/07/06 11:30:47;;;;;;;8.07;2.60;;;20.20;99.90;;;;;;5054378;28;20250;-71
2023/07/06 11:33:40;;;;;;;6.87;2.60;;;20.40;99.90;;;;;;5053903;28;20217;-70
2023/07/06 11:36:29;;;;;;;5.63;2.43;;;20.60;99.90;;;;;;5053649;28;20568;-71
2023/07/06 11:39:19;;;;;;;6.20;2.50;;;20.70;99.90;;;;;;5053459;28;20262;-71
2023/07/06 11:42:22;;;;;;;6.53;2.57;;;20.80;99.90;;;;;;5053765;28;20653;-71
2023/07/06 11:45:11;;;;;;;7.33;2.50;;;20.40;99.90;;;;;;5053712;28;20197;-71
2023/07/06 11:48:04;;;;;;;5.53;2.70;;;20.40;99.90;;;;;;5071731;28;20231;-71
2023/07/06 11:50:51;;;;;;;6.23;2.37;;;20.60;99.90;;;;;;5073023;28;20617;-71
2023/07/06 11:53:54;;;;;;;5.13;2.47;;;20.90;99.90;;;;;;5072908;28;20695;-71
2023/07/06 11:56:50;;;;;;;8.13;2.40;;;21.00;99.90;;;;;;5072615;28;20196;-71
2023/07/06 11:59:40;;;;;;;6.63;2.70;;;21.10;99.90;;;;;;5073212;28;20269;-72
2023/07/06 12:02:27;;;;;;;5.10;2.60;;;21.20;99.90;;;;;;5072756;28;20279;-71
2023/07/06 12:05:26;;;;;;;6.10;2.87;;;21.30;99.90;;;;;;5071484;28;20203;-71
2023/07/06 12:08:16;;;;;;;4.10;2.70;;;21.20;99.90;;;;;;5072380;28;20193;-71
2023/07/06 12:11:06;;;;;;;11.77;2.67;;;21.00;99.90;;;;;;5072591;28;20232;-71
2023/07/06 12:13:54;;;;;;;9.70;2.90;;;20.80;99.90;;;;;;5072257;28;20223;-71
2023/07/06 12:16:43;;;;;;;7.87;2.90;;;20.70;99.90;;;;;;5072671;28;20292;-71
2023/07/06 12:19:30;;;;;;;6.43;3.17;;;20.80;99.90;;;;;;5072049;28;20693;-71
2023/07/06 12:22:19;;;;;;;6.90;2.93;;;20.70;99.90;;;;;;5072855;28;20204;-72
2023/07/06 12:25:09;;;;;;;8.27;2.73;;;20.60;99.90;;;;;;5072317;28;20262;-71
2023/07/06 12:27:58;;;;;;;4.90;2.67;;;20.70;99.90;;;;;;5072693;28;20274;-71
2023/07/06 12:30:49;;;;;;;6.33;2.60;;;20.80;99.90;;;;;;5072891;28;20660;-71
2023/07/06 12:33:37;;;;;;;5.57;2.73;;;21.10;99.90;;;;;;5072577;28;20217;-71
2023/07/06 12:36:26;;;;;;;9.67;3.07;;;21.30;99.90;;;;;;5072286;28;20663;-71
2023/07/06 12:39:14;;;;;;;5.43;2.97;;;21.50;99.90;;;;;;5072416;28;20307;-71
2023/07/06 12:42:01;;;;;;;6.17;3.30;;;21.60;99.90;;;;;;5071953;28;20286;-71
2023/07/06 12:44:50;;;;;;;8.20;3.30;;;21.60;99.90;;;;;;5072517;28;20687;-70
2023/07/06 12:47:40;;;;;;;7.93;3.63;;;21.70;99.90;;;;;;5057162;28;20202;-71
2023/07/06 12:50:35;;;;;;;6.67;3.20;;;21.80;99.90;;;;;;5052683;28;20243;-71
2023/07/06 12:53:26;;;;;;;8.43;3.10;;;22.00;99.90;;;;;;5051563;28;20208;-71
2023/07/06 12:56:15;;;;;;;9.03;3.20;;;22.30;99.90;;;;;;5052357;28;20623;-71
2023/07/06 12:59:03;;;;;;;8.80;3.40;;;22.50;99.90;;;;;;5052587;28;20197;-71
2023/07/06 13:01:52;;;;;;;8.07;2.90;;;22.80;99.20;;;;;;5052330;28;20193;-71
2023/07/06 13:04:43;;;;;;;11.57;3.67;;;23.00;99.90;;;;;;5052606;28;20197;-71
2023/07/06 13:07:32;;;;;;;8.47;3.13;;;22.90;96.00;;;;;;5052186;28;20194;-71
2023/07/06 13:10:20;;;;;;;7.50;2.80;;;23.30;95.90;;;;;;5055550;28;20271;-70
2023/07/06 13:13:08;;;;;;;8.13;3.53;;;23.20;95.50;;;;;;5056296;28;20213;-71
2023/07/06 13:15:57;;;;;;;12.70;3.50;;;22.90;96.10;;;;;;5056362;28;20197;-71
2023/07/06 13:18:45;;;;;;;10.52;3.40;;;23.20;99.90;;;;;;5056216;28;20201;-71
2023/07/06 13:21:34;;;;;;;7.55;3.20;;;23.50;93.70;;;;;;5056186;28;20197;-71
2023/07/06 13:24:23;;;;;;;8.50;3.30;;;23.60;97.50;;;;;;5056541;28;20205;-71
2023/07/06 13:27:13;;;;;;;7.28;3.38;;;24.00;97.50;;;;;;5056313;28;20208;-70
2023/07/06 13:30:00;;;;;;;10.20;3.63;;;24.50;91.20;;;;;;5056396;28;20193;-71
2023/07/06 13:32:47;;;;;;;7.25;3.40;;;24.50;82.30;;;;;;5056195;28;20212;-71
2023/07/06 13:35:34;;;;;;;8.02;3.30;;;23.60;79.50;;;;;;5055827;28;20202;-71
2023/07/06 13:38:21;;;;;;;8.48;3.97;;;23.70;89.80;;;;;;5055949;28;20220;-70
2023/07/06 13:41:12;;;;;;;14.20;4.20;;;23.70;90.30;;;;;;5055817;28;20197;-70
2023/07/06 13:44:00;;;;;;;7.47;3.60;;;24.00;80.00;;;;;;5056047;28;20667;-70
2023/07/06 13:46:48;;;;;;;10.60;4.00;;;24.50;81.80;;;;;;5063692;28;20192;-70
2023/07/06 13:49:35;;;;;;;5.90;3.47;;;24.10;76.20;;;;;;5075629;28;20633;-70
2023/07/06 13:52:22;;;;;;;8.73;3.33;;;24.50;80.60;;;;;;5075119;28;20196;-70
2023/07/06 13:55:13;;;;;;;8.90;3.45;;;24.70;77.40;;;;;;5075631;28;20673;-69
2023/07/06 13:58:02;;;;;;;8.20;3.45;;;24.80;83.10;;;;;;5074916;28;20196;-69
2023/07/06 14:00:49;;;;;;;6.35;3.33;;;25.10;75.40;;;;;;5075109;28;20707;-69
2023/07/06 14:03:36;;;;;;;11.15;3.80;;;25.30;79.80;;;;;;5074783;28;20192;-69
2023/07/06 14:06:24;;;;;;;9.63;4.20;;;25.40;73.30;;;;;;5075093;28;20232;-69
2023/07/06 14:09:12;;;;;;;9.88;5.10;;;25.30;67.40;;;;;;5074656;28;20669;-69
2023/07/06 14:12:01;;;;;;;15.75;4.78;;;25.60;69.60;;;;;;5074564;28;20215;-69
2023/07/06 14:14:50;;;;;;;9.63;5.32;;;25.80;72.40;;;;;;5074633;28;20189;-69
2023/07/06 14:17:37;;;;;;;12.48;4.63;;;26.10;63.00;;;;;;5075177;28;20575;-69
2023/07/06 14:20:26;;;;;;;11.88;5.10;;;25.60;60.50;;;;;;5073982;28;20196;-69
2023/07/06 14:23:13;;;;;;;12.55;4.95;;;25.40;66.70;;;;;;5075243;28;20254;-70
2023/07/06 14:26:01;;;;;;;11.02;4.80;;;25.60;64.70;;;;;;5075035;28;20311;-69
2023/07/06 14:28:50;;;;;;;9.25;4.90;;;26.10;62.30;;;;;;5074417;28;20208;-69
2023/07/06 14:31:39;;;;;;;10.48;5.10;;;26.60;64.70;;;;;;5074343;28;20196;-69
2023/07/06 14:34:26;;;;;;;9.55;4.68;;;26.30;60.90;;;;;;5074624;28;20274;-69